Aérodrome :
LOGIN :

S'inscrire | Disclaimer

   EN    FR    IT 

 










Légende :    VFR   VFR Marginal   IFR   IFR Intensif   IFR Très Intensif
Visi : 
Plafond : 
>= 8 km
>= 3000ft
5 à 8 km
1000 à 3000 ft
1500m à 5 km
500 à 1000 ft
800 à 1500m
200 à 500 ft
< 800m
< 200 ft
Symboles :   Orages  Brouillard  Fortes neiges  Fortes précipitations  Vent > 20 kt
SIGMETs :   Divers  Orages  Givrage  Turbulence  Onde Orograph.  Cendres Volcan.







- Altitude de l'aérodrome : 56 ft
- Code IATA : BZR
- Voir les cartes d'approche


LFMU - Beziers / Vias

DERNIER METAR :
  • 200930Z AUTO 27004KT 200V320 CAVOK 23/12 Q1015 TEMPO SHRA FEW035TCU

METARs EXPIRÉS :
  • 200900Z AUTO 27006KT 220V310 CAVOK 22/12 Q1015 NOSIG
  • 200830Z AUTO 27005KT 230V320 CAVOK 21/14 Q1015 NOSIG
  • 200800Z AUTO 27006KT 240V320 CAVOK 20/13 Q1016 NOSIG
  • 200730Z AUTO 27005KT 230V300 CAVOK 19/14 Q1016 NOSIG
  • 200700Z AUTO 27005KT 240V310 CAVOK 18/13 Q1016 NOSIG

TAF TAF LFMU
Valide du 20 à 09h jusqu'au 21 à 09h UTC


200800Z 2009/2109 VRB03KT CAVOK
BECMG 2011/2013 16010KT
TEMPO 2011/2017 SHRA FEW035TCU
BECMG 2018/2020 VRB03KT
ATIS : +33 4 67 90 88 88
Pas de NOTAMs connus pour ce terrain.



MET'MAP, la Météo Aéronautique d'un coup d'oeil ! - Copyright ORBIFLY Décembre 2007 - Disclaimer

ORBIFLY MET'MAP TEAM :

Programmation & Développement : Alexandra Zaïnal
Conception & Développement : Baudouin d'Aumeries
Co-Programmation & Développement : Marc-Olivier Méhu
Soutien technique & logistique : Manuel Goepfert

Contact : metmap@orbifly.com




SOURCES & CREDITS :

   NOAA